sensor_id;sensor_type;location;lat;lon;timestamp;temperature;humidity
12413;DHT22;13877;18.896;-99.222;2023-12-04T00:01:27;24.00;1.00
12413;DHT22;13877;18.896;-99.222;2023-12-04T00:03:55;23.90;1.00
12413;DHT22;13877;18.896;-99.222;2023-12-04T00:06:23;23.80;1.00
12413;DHT22;13877;18.896;-99.222;2023-12-04T00:08:50;23.70;1.00
12413;DHT22;13877;18.896;-99.222;2023-12-04T00:11:17;23.60;1.00
12413;DHT22;13877;18.896;-99.222;2023-12-04T00:13:45;23.50;1.00
12413;DHT22;13877;18.896;-99.222;2023-12-04T00:16:12;23.40;1.00
12413;DHT22;13877;18.896;-99.222;2023-12-04T00:18:41;23.30;1.00
12413;DHT22;13877;18.896;-99.222;2023-12-04T00:21:08;23.30;1.00
12413;DHT22;13877;18.896;-99.222;2023-12-04T00:23:35;23.20;1.00
12413;DHT22;13877;18.896;-99.222;2023-12-04T00:26:02;23.20;1.00
12413;DHT22;13877;18.896;-99.222;2023-12-04T00:28:31;23.00;1.00
12413;DHT22;13877;18.896;-99.222;2023-12-04T00:30:58;23.00;1.00
12413;DHT22;13877;18.896;-99.222;2023-12-04T00:33:25;22.80;1.00
12413;DHT22;13877;18.896;-99.222;2023-12-04T00:35:52;22.60;1.00
12413;DHT22;13877;18.896;-99.222;2023-12-04T00:38:20;22.40;1.00
12413;DHT22;13877;18.896;-99.222;2023-12-04T00:40:47;22.40;1.00
12413;DHT22;13877;18.896;-99.222;2023-12-04T00:43:14;22.40;1.00
12413;DHT22;13877;18.896;-99.222;2023-12-04T00:45:42;22.30;1.00
12413;DHT22;13877;18.896;-99.222;2023-12-04T00:48:09;22.30;1.00
12413;DHT22;13877;18.896;-99.222;2023-12-04T00:50:36;22.20;1.00
12413;DHT22;13877;18.896;-99.222;2023-12-04T00:53:03;22.10;1.00
12413;DHT22;13877;18.896;-99.222;2023-12-04T00:55:30;22.10;1.00
12413;DHT22;13877;18.896;-99.222;2023-12-04T00:57:58;22.00;1.00
12413;DHT22;13877;18.896;-99.222;2023-12-04T01:00:25;22.00;1.00
12413;DHT22;13877;18.896;-99.222;2023-12-04T01:02:53;21.90;1.00
12413;DHT22;13877;18.896;-99.222;2023-12-04T01:05:21;21.90;1.00
12413;DHT22;13877;18.896;-99.222;2023-12-04T01:07:48;21.90;1.00
12413;DHT22;13877;18.896;-99.222;2023-12-04T01:10:34;21.70;1.00
12413;DHT22;13877;18.896;-99.222;2023-12-04T01:13:01;21.50;1.00
12413;DHT22;13877;18.896;-99.222;2023-12-04T01:15:28;21.50;1.00
12413;DHT22;13877;18.896;-99.222;2023-12-04T01:17:55;21.60;1.00
12413;DHT22;13877;18.896;-99.222;2023-12-04T01:20:23;21.70;1.00
12413;DHT22;13877;18.896;-99.222;2023-12-04T01:22:50;21.70;1.00
12413;DHT22;13877;18.896;-99.222;2023-12-04T01:25:17;21.70;1.00
12413;DHT22;13877;18.896;-99.222;2023-12-04T01:27:45;21.60;1.00
12413;DHT22;13877;18.896;-99.222;2023-12-04T01:30:13;21.60;1.00
12413;DHT22;13877;18.896;-99.222;2023-12-04T01:32:40;21.70;1.00
12413;DHT22;13877;18.896;-99.222;2023-12-04T01:35:07;21.80;1.00
12413;DHT22;13877;18.896;-99.222;2023-12-04T01:37:36;21.80;1.00
12413;DHT22;13877;18.896;-99.222;2023-12-04T01:40:04;21.80;1.00
12413;DHT22;13877;18.896;-99.222;2023-12-04T01:42:33;21.90;1.00
12413;DHT22;13877;18.896;-99.222;2023-12-04T01:45:00;21.90;1.00
12413;DHT22;13877;18.896;-99.222;2023-12-04T01:47:28;22.00;1.00
12413;DHT22;13877;18.896;-99.222;2023-12-04T01:49:55;22.00;1.00
12413;DHT22;13877;18.896;-99.222;2023-12-04T01:52:22;22.10;1.00
12413;DHT22;13877;18.896;-99.222;2023-12-04T01:54:49;22.20;1.00
12413;DHT22;13877;18.896;-99.222;2023-12-04T01:57:17;22.30;1.00
12413;DHT22;13877;18.896;-99.222;2023-12-04T01:59:45;22.30;1.00
12413;DHT22;13877;18.896;-99.222;2023-12-04T02:02:13;22.30;1.00
12413;DHT22;13877;18.896;-99.222;2023-12-04T02:04:41;22.40;1.00
12413;DHT22;13877;18.896;-99.222;2023-12-04T02:07:09;22.40;1.00
12413;DHT22;13877;18.896;-99.222;2023-12-04T02:09:37;22.30;1.00
12413;DHT22;13877;18.896;-99.222;2023-12-04T02:12:05;22.20;1.00
12413;DHT22;13877;18.896;-99.222;2023-12-04T02:14:32;22.20;1.00
12413;DHT22;13877;18.896;-99.222;2023-12-04T02:17:01;22.00;1.00
12413;DHT22;13877;18.896;-99.222;2023-12-04T02:19:31;22.00;1.00
12413;DHT22;13877;18.896;-99.222;2023-12-04T02:21:59;22.00;1.00
12413;DHT22;13877;18.896;-99.222;2023-12-04T02:24:26;22.10;1.00
12413;DHT22;13877;18.896;-99.222;2023-12-04T02:26:58;22.20;1.00
12413;DHT22;13877;18.896;-99.222;2023-12-04T02:29:37;22.20;1.00
12413;DHT22;13877;18.896;-99.222;2023-12-04T02:32:06;22.20;1.00
12413;DHT22;13877;18.896;-99.222;2023-12-04T02:34:35;22.40;1.00
12413;DHT22;13877;18.896;-99.222;2023-12-04T02:37:03;22.40;1.00
12413;DHT22;13877;18.896;-99.222;2023-12-04T02:39:31;22.30;1.00
12413;DHT22;13877;18.896;-99.222;2023-12-04T02:41:58;22.20;1.00
12413;DHT22;13877;18.896;-99.222;2023-12-04T02:44:25;22.30;1.00
12413;DHT22;13877;18.896;-99.222;2023-12-04T02:46:53;22.30;1.00
12413;DHT22;13877;18.896;-99.222;2023-12-04T02:49:20;22.30;1.00
12413;DHT22;13877;18.896;-99.222;2023-12-04T02:51:47;22.50;1.00
12413;DHT22;13877;18.896;-99.222;2023-12-04T02:54:14;22.50;1.00
12413;DHT22;13877;18.896;-99.222;2023-12-04T02:56:42;22.50;1.00
12413;DHT22;13877;18.896;-99.222;2023-12-04T02:59:09;22.40;1.00
12413;DHT22;13877;18.896;-99.222;2023-12-04T03:01:37;22.40;1.00
12413;DHT22;13877;18.896;-99.222;2023-12-04T03:04:04;22.40;1.00
12413;DHT22;13877;18.896;-99.222;2023-12-04T03:06:31;22.50;1.00
12413;DHT22;13877;18.896;-99.222;2023-12-04T03:08:59;22.50;1.00
12413;DHT22;13877;18.896;-99.222;2023-12-04T03:11:26;22.50;1.00
12413;DHT22;13877;18.896;-99.222;2023-12-04T03:13:53;22.50;1.00
12413;DHT22;13877;18.896;-99.222;2023-12-04T03:16:21;22.50;1.00
12413;DHT22;13877;18.896;-99.222;2023-12-04T03:18:48;22.40;1.00
12413;DHT22;13877;18.896;-99.222;2023-12-04T03:21:15;22.40;1.00
12413;DHT22;13877;18.896;-99.222;2023-12-04T03:23:42;22.60;1.00
12413;DHT22;13877;18.896;-99.222;2023-12-04T03:26:10;22.50;1.00
12413;DHT22;13877;18.896;-99.222;2023-12-04T03:28:38;22.50;1.00
12413;DHT22;13877;18.896;-99.222;2023-12-04T03:31:09;22.60;1.00
12413;DHT22;13877;18.896;-99.222;2023-12-04T03:33:36;22.60;1.00
12413;DHT22;13877;18.896;-99.222;2023-12-04T03:36:04;22.60;1.00
12413;DHT22;13877;18.896;-99.222;2023-12-04T03:38:31;22.50;1.00
12413;DHT22;13877;18.896;-99.222;2023-12-04T03:40:58;22.50;1.00
12413;DHT22;13877;18.896;-99.222;2023-12-04T03:43:26;22.60;1.00
12413;DHT22;13877;18.896;-99.222;2023-12-04T03:45:53;22.70;1.00
12413;DHT22;13877;18.896;-99.222;2023-12-04T03:48:20;22.50;1.00
12413;DHT22;13877;18.896;-99.222;2023-12-04T03:50:48;22.40;1.00
12413;DHT22;13877;18.896;-99.222;2023-12-04T03:53:15;22.30;1.00
12413;DHT22;13877;18.896;-99.222;2023-12-04T03:55:43;22.30;1.00
12413;DHT22;13877;18.896;-99.222;2023-12-04T03:58:10;22.20;1.00
12413;DHT22;13877;18.896;-99.222;2023-12-04T04:00:37;22.10;1.00
12413;DHT22;13877;18.896;-99.222;2023-12-04T04:03:07;22.20;1.00
12413;DHT22;13877;18.896;-99.222;2023-12-04T04:05:35;22.30;1.00
12413;DHT22;13877;18.896;-99.222;2023-12-04T04:08:02;22.30;1.00
12413;DHT22;13877;18.896;-99.222;2023-12-04T04:10:31;22.20;1.00
12413;DHT22;13877;18.896;-99.222;2023-12-04T04:12:59;22.40;1.00
12413;DHT22;13877;18.896;-99.222;2023-12-04T04:15:26;22.30;1.00
12413;DHT22;13877;18.896;-99.222;2023-12-04T04:17:54;22.20;1.00
12413;DHT22;13877;18.896;-99.222;2023-12-04T04:20:22;22.10;1.00
12413;DHT22;13877;18.896;-99.222;2023-12-04T04:22:49;22.00;1.00
12413;DHT22;13877;18.896;-99.222;2023-12-04T04:25:16;21.90;1.00
12413;DHT22;13877;18.896;-99.222;2023-12-04T04:27:45;21.60;1.00
12413;DHT22;13877;18.896;-99.222;2023-12-04T04:30:12;21.30;1.00
12413;DHT22;13877;18.896;-99.222;2023-12-04T04:32:40;21.00;1.00
12413;DHT22;13877;18.896;-99.222;2023-12-04T04:35:08;20.90;1.00
12413;DHT22;13877;18.896;-99.222;2023-12-04T04:37:35;20.90;1.00
12413;DHT22;13877;18.896;-99.222;2023-12-04T04:40:03;20.90;1.00
12413;DHT22;13877;18.896;-99.222;2023-12-04T04:42:30;20.90;1.00
12413;DHT22;13877;18.896;-99.222;2023-12-04T04:44:58;20.80;1.00
12413;DHT22;13877;18.896;-99.222;2023-12-04T04:47:25;20.80;1.00
12413;DHT22;13877;18.896;-99.222;2023-12-04T04:49:53;20.80;1.00
12413;DHT22;13877;18.896;-99.222;2023-12-04T04:52:20;20.70;1.00
12413;DHT22;13877;18.896;-99.222;2023-12-04T04:54:47;20.60;1.00
12413;DHT22;13877;18.896;-99.222;2023-12-04T04:57:14;20.60;1.00
12413;DHT22;13877;18.896;-99.222;2023-12-04T04:59:41;20.80;1.00
12413;DHT22;13877;18.896;-99.222;2023-12-04T05:02:08;21.00;1.00
12413;DHT22;13877;18.896;-99.222;2023-12-04T05:04:36;21.00;1.00
12413;DHT22;13877;18.896;-99.222;2023-12-04T05:07:03;21.10;1.00
12413;DHT22;13877;18.896;-99.222;2023-12-04T05:09:30;21.20;1.00
12413;DHT22;13877;18.896;-99.222;2023-12-04T05:11:57;21.20;1.00
12413;DHT22;13877;18.896;-99.222;2023-12-04T05:14:25;21.20;1.00
12413;DHT22;13877;18.896;-99.222;2023-12-04T05:16:53;21.20;1.00
12413;DHT22;13877;18.896;-99.222;2023-12-04T05:19:21;21.40;1.00
12413;DHT22;13877;18.896;-99.222;2023-12-04T05:21:48;21.50;1.00
12413;DHT22;13877;18.896;-99.222;2023-12-04T05:24:15;21.50;1.00
12413;DHT22;13877;18.896;-99.222;2023-12-04T05:26:43;21.50;1.00
12413;DHT22;13877;18.896;-99.222;2023-12-04T05:29:10;21.50;1.00
12413;DHT22;13877;18.896;-99.222;2023-12-04T05:31:37;21.50;1.00
12413;DHT22;13877;18.896;-99.222;2023-12-04T05:34:05;21.40;1.00
12413;DHT22;13877;18.896;-99.222;2023-12-04T05:36:32;21.20;1.00
12413;DHT22;13877;18.896;-99.222;2023-12-04T05:39:00;21.20;1.00
12413;DHT22;13877;18.896;-99.222;2023-12-04T05:41:27;21.10;1.00
12413;DHT22;13877;18.896;-99.222;2023-12-04T05:43:54;21.00;1.00
12413;DHT22;13877;18.896;-99.222;2023-12-04T05:46:21;21.00;1.00
12413;DHT22;13877;18.896;-99.222;2023-12-04T05:48:48;21.10;1.00
12413;DHT22;13877;18.896;-99.222;2023-12-04T05:51:16;21.20;1.00
12413;DHT22;13877;18.896;-99.222;2023-12-04T05:53:43;21.40;1.00
12413;DHT22;13877;18.896;-99.222;2023-12-04T05:56:10;21.50;1.00
12413;DHT22;13877;18.896;-99.222;2023-12-04T05:58:38;21.50;1.00
12413;DHT22;13877;18.896;-99.222;2023-12-04T06:01:05;21.50;1.00
12413;DHT22;13877;18.896;-99.222;2023-12-04T06:03:33;21.50;1.00
12413;DHT22;13877;18.896;-99.222;2023-12-04T06:06:00;21.50;1.00
12413;DHT22;13877;18.896;-99.222;2023-12-04T06:08:28;21.50;1.00
12413;DHT22;13877;18.896;-99.222;2023-12-04T06:10:55;21.50;1.00
12413;DHT22;13877;18.896;-99.222;2023-12-04T06:13:22;21.40;1.00
12413;DHT22;13877;18.896;-99.222;2023-12-04T06:15:49;21.40;1.00
12413;DHT22;13877;18.896;-99.222;2023-12-04T06:18:17;21.40;1.00
12413;DHT22;13877;18.896;-99.222;2023-12-04T06:20:44;21.30;1.00
12413;DHT22;13877;18.896;-99.222;2023-12-04T06:23:11;21.30;1.00
12413;DHT22;13877;18.896;-99.222;2023-12-04T06:25:40;21.30;1.00
12413;DHT22;13877;18.896;-99.222;2023-12-04T06:28:08;21.30;1.00
12413;DHT22;13877;18.896;-99.222;2023-12-04T06:30:35;21.20;1.00
12413;DHT22;13877;18.896;-99.222;2023-12-04T06:33:04;21.20;1.00
12413;DHT22;13877;18.896;-99.222;2023-12-04T06:35:31;21.20;1.00
12413;DHT22;13877;18.896;-99.222;2023-12-04T06:38:05;21.20;1.00
12413;DHT22;13877;18.896;-99.222;2023-12-04T06:40:34;21.20;1.00
12413;DHT22;13877;18.896;-99.222;2023-12-04T06:43:01;21.10;1.00
12413;DHT22;13877;18.896;-99.222;2023-12-04T06:45:29;21.00;1.00
12413;DHT22;13877;18.896;-99.222;2023-12-04T06:47:59;21.00;1.00
12413;DHT22;13877;18.896;-99.222;2023-12-04T06:50:27;20.90;1.00
12413;DHT22;13877;18.896;-99.222;2023-12-04T06:52:54;20.90;1.00
12413;DHT22;13877;18.896;-99.222;2023-12-04T06:55:23;20.90;1.00
12413;DHT22;13877;18.896;-99.222;2023-12-04T06:57:50;21.10;1.00
12413;DHT22;13877;18.896;-99.222;2023-12-04T07:00:18;21.30;1.00
12413;DHT22;13877;18.896;-99.222;2023-12-04T07:02:45;21.50;1.00
12413;DHT22;13877;18.896;-99.222;2023-12-04T07:05:13;21.50;1.00
12413;DHT22;13877;18.896;-99.222;2023-12-04T07:07:40;21.60;1.00
12413;DHT22;13877;18.896;-99.222;2023-12-04T07:10:08;21.60;1.00
12413;DHT22;13877;18.896;-99.222;2023-12-04T07:12:36;21.60;1.00
12413;DHT22;13877;18.896;-99.222;2023-12-04T07:15:03;21.50;1.00
12413;DHT22;13877;18.896;-99.222;2023-12-04T07:17:30;21.60;1.00
12413;DHT22;13877;18.896;-99.222;2023-12-04T07:19:58;21.50;1.00
12413;DHT22;13877;18.896;-99.222;2023-12-04T07:22:25;21.40;1.00
12413;DHT22;13877;18.896;-99.222;2023-12-04T07:24:52;21.30;1.00
12413;DHT22;13877;18.896;-99.222;2023-12-04T07:27:19;21.20;1.00
12413;DHT22;13877;18.896;-99.222;2023-12-04T07:29:47;21.00;1.00
12413;DHT22;13877;18.896;-99.222;2023-12-04T07:32:14;20.90;1.00
12413;DHT22;13877;18.896;-99.222;2023-12-04T07:34:41;20.80;1.00
12413;DHT22;13877;18.896;-99.222;2023-12-04T07:37:08;20.70;1.00
12413;DHT22;13877;18.896;-99.222;2023-12-04T07:39:36;20.60;1.00
12413;DHT22;13877;18.896;-99.222;2023-12-04T07:42:03;20.60;1.00
12413;DHT22;13877;18.896;-99.222;2023-12-04T07:44:30;20.60;1.00
12413;DHT22;13877;18.896;-99.222;2023-12-04T07:46:57;20.50;1.00
12413;DHT22;13877;18.896;-99.222;2023-12-04T07:49:25;20.50;1.00
12413;DHT22;13877;18.896;-99.222;2023-12-04T07:51:52;20.40;1.00
12413;DHT22;13877;18.896;-99.222;2023-12-04T07:54:19;20.40;1.00
12413;DHT22;13877;18.896;-99.222;2023-12-04T07:56:49;20.30;1.00
12413;DHT22;13877;18.896;-99.222;2023-12-04T07:59:16;20.20;1.00
12413;DHT22;13877;18.896;-99.222;2023-12-04T08:01:43;20.10;1.00
12413;DHT22;13877;18.896;-99.222;2023-12-04T08:04:11;20.10;1.00
12413;DHT22;13877;18.896;-99.222;2023-12-04T08:06:38;20.30;1.00
12413;DHT22;13877;18.896;-99.222;2023-12-04T08:09:06;20.40;1.00
12413;DHT22;13877;18.896;-99.222;2023-12-04T08:11:37;20.50;1.00
12413;DHT22;13877;18.896;-99.222;2023-12-04T08:14:05;20.60;1.00
12413;DHT22;13877;18.896;-99.222;2023-12-04T08:16:32;20.60;1.00
12413;DHT22;13877;18.896;-99.222;2023-12-04T08:18:59;20.60;1.00
12413;DHT22;13877;18.896;-99.222;2023-12-04T08:21:27;20.70;1.00
12413;DHT22;13877;18.896;-99.222;2023-12-04T08:23:54;20.70;1.00
12413;DHT22;13877;18.896;-99.222;2023-12-04T08:26:22;20.70;1.00
12413;DHT22;13877;18.896;-99.222;2023-12-04T08:28:51;20.70;1.00
12413;DHT22;13877;18.896;-99.222;2023-12-04T08:31:18;20.60;1.00
12413;DHT22;13877;18.896;-99.222;2023-12-04T08:33:46;20.50;1.00
12413;DHT22;13877;18.896;-99.222;2023-12-04T08:36:13;20.40;1.00
12413;DHT22;13877;18.896;-99.222;2023-12-04T08:38:40;20.20;1.00
12413;DHT22;13877;18.896;-99.222;2023-12-04T08:41:08;20.20;1.00
12413;DHT22;13877;18.896;-99.222;2023-12-04T08:43:35;20.00;1.00
12413;DHT22;13877;18.896;-99.222;2023-12-04T08:46:03;20.00;1.00
12413;DHT22;13877;18.896;-99.222;2023-12-04T08:48:30;19.90;1.00
12413;DHT22;13877;18.896;-99.222;2023-12-04T08:50:57;19.90;1.00
12413;DHT22;13877;18.896;-99.222;2023-12-04T08:53:25;19.80;1.00
12413;DHT22;13877;18.896;-99.222;2023-12-04T08:55:52;19.80;1.00
12413;DHT22;13877;18.896;-99.222;2023-12-04T08:58:19;19.90;1.00
12413;DHT22;13877;18.896;-99.222;2023-12-04T09:00:47;19.90;1.00
12413;DHT22;13877;18.896;-99.222;2023-12-04T09:03:14;20.00;1.00
12413;DHT22;13877;18.896;-99.222;2023-12-04T09:05:42;20.00;1.00
12413;DHT22;13877;18.896;-99.222;2023-12-04T09:08:09;20.00;1.00
12413;DHT22;13877;18.896;-99.222;2023-12-04T09:10:37;20.00;1.00
12413;DHT22;13877;18.896;-99.222;2023-12-04T09:13:04;20.00;1.00
12413;DHT22;13877;18.896;-99.222;2023-12-04T09:15:31;20.00;1.00
12413;DHT22;13877;18.896;-99.222;2023-12-04T09:17:58;20.00;1.00
12413;DHT22;13877;18.896;-99.222;2023-12-04T09:20:26;20.00;1.00
12413;DHT22;13877;18.896;-99.222;2023-12-04T09:22:54;20.00;1.00
12413;DHT22;13877;18.896;-99.222;2023-12-04T09:25:21;20.00;1.00
12413;DHT22;13877;18.896;-99.222;2023-12-04T09:27:48;20.00;1.00
12413;DHT22;13877;18.896;-99.222;2023-12-04T09:30:15;19.90;1.00
12413;DHT22;13877;18.896;-99.222;2023-12-04T09:32:43;20.00;1.00
12413;DHT22;13877;18.896;-99.222;2023-12-04T09:35:11;20.00;1.00
12413;DHT22;13877;18.896;-99.222;2023-12-04T09:37:40;20.00;1.00
12413;DHT22;13877;18.896;-99.222;2023-12-04T09:40:26;19.90;1.00
12413;DHT22;13877;18.896;-99.222;2023-12-04T09:42:53;19.90;1.00
12413;DHT22;13877;18.896;-99.222;2023-12-04T09:45:21;19.90;1.00
12413;DHT22;13877;18.896;-99.222;2023-12-04T09:47:50;19.90;1.00
12413;DHT22;13877;18.896;-99.222;2023-12-04T09:50:18;19.90;1.00
12413;DHT22;13877;18.896;-99.222;2023-12-04T09:52:51;20.00;1.00
12413;DHT22;13877;18.896;-99.222;2023-12-04T09:55:21;20.00;1.00
12413;DHT22;13877;18.896;-99.222;2023-12-04T09:57:49;20.00;1.00
12413;DHT22;13877;18.896;-99.222;2023-12-04T10:00:16;20.00;1.00
12413;DHT22;13877;18.896;-99.222;2023-12-04T10:02:44;20.00;1.00
12413;DHT22;13877;18.896;-99.222;2023-12-04T10:05:12;20.00;1.00
12413;DHT22;13877;18.896;-99.222;2023-12-04T10:07:40;20.00;1.00
12413;DHT22;13877;18.896;-99.222;2023-12-04T10:10:07;19.90;1.00
12413;DHT22;13877;18.896;-99.222;2023-12-04T10:12:36;19.80;1.00
12413;DHT22;13877;18.896;-99.222;2023-12-04T10:15:11;19.80;1.00
12413;DHT22;13877;18.896;-99.222;2023-12-04T10:17:40;19.80;1.00
12413;DHT22;13877;18.896;-99.222;2023-12-04T10:20:13;19.70;1.00
12413;DHT22;13877;18.896;-99.222;2023-12-04T10:22:57;19.70;1.00
12413;DHT22;13877;18.896;-99.222;2023-12-04T10:25:27;19.60;1.00
12413;DHT22;13877;18.896;-99.222;2023-12-04T10:28:12;19.60;1.00
12413;DHT22;13877;18.896;-99.222;2023-12-04T10:30:42;19.50;1.00
12413;DHT22;13877;18.896;-99.222;2023-12-04T10:33:10;19.40;1.00
12413;DHT22;13877;18.896;-99.222;2023-12-04T10:35:37;19.50;1.00
12413;DHT22;13877;18.896;-99.222;2023-12-04T10:38:06;19.50;1.00
12413;DHT22;13877;18.896;-99.222;2023-12-04T10:40:35;19.50;1.00
12413;DHT22;13877;18.896;-99.222;2023-12-04T10:43:19;19.50;1.00
12413;DHT22;13877;18.896;-99.222;2023-12-04T10:45:50;19.50;1.00
12413;DHT22;13877;18.896;-99.222;2023-12-04T10:48:19;19.50;1.00
12413;DHT22;13877;18.896;-99.222;2023-12-04T10:50:48;19.60;1.00
12413;DHT22;13877;18.896;-99.222;2023-12-04T10:53:16;19.70;1.00
12413;DHT22;13877;18.896;-99.222;2023-12-04T10:55:45;19.70;1.00
12413;DHT22;13877;18.896;-99.222;2023-12-04T10:58:13;19.80;1.00
12413;DHT22;13877;18.896;-99.222;2023-12-04T11:00:46;19.80;1.00
12413;DHT22;13877;18.896;-99.222;2023-12-04T11:03:21;19.80;1.00
12413;DHT22;13877;18.896;-99.222;2023-12-04T11:05:56;19.80;1.00
12413;DHT22;13877;18.896;-99.222;2023-12-04T11:08:28;19.80;1.00
12413;DHT22;13877;18.896;-99.222;2023-12-04T11:11:06;19.80;1.00
12413;DHT22;13877;18.896;-99.222;2023-12-04T11:13:39;19.80;1.00
12413;DHT22;13877;18.896;-99.222;2023-12-04T11:16:48;19.80;1.00
12413;DHT22;13877;18.896;-99.222;2023-12-04T11:19:32;19.80;1.00
12413;DHT22;13877;18.896;-99.222;2023-12-04T11:22:02;19.70;1.00
12413;DHT22;13877;18.896;-99.222;2023-12-04T11:24:32;19.60;1.00
12413;DHT22;13877;18.896;-99.222;2023-12-04T11:26:59;19.50;1.00
12413;DHT22;13877;18.896;-99.222;2023-12-04T11:29:28;19.50;1.00
12413;DHT22;13877;18.896;-99.222;2023-12-04T11:31:56;19.40;1.00
12413;DHT22;13877;18.896;-99.222;2023-12-04T11:34:24;19.40;1.00
12413;DHT22;13877;18.896;-99.222;2023-12-04T11:36:52;19.40;1.00
12413;DHT22;13877;18.896;-99.222;2023-12-04T11:39:19;19.40;1.00
12413;DHT22;13877;18.896;-99.222;2023-12-04T11:41:48;19.20;1.00
12413;DHT22;13877;18.896;-99.222;2023-12-04T11:44:16;19.10;1.00
12413;DHT22;13877;18.896;-99.222;2023-12-04T11:46:57;19.10;1.00
12413;DHT22;13877;18.896;-99.222;2023-12-04T11:49:29;19.00;1.00
12413;DHT22;13877;18.896;-99.222;2023-12-04T11:52:03;18.90;1.00
12413;DHT22;13877;18.896;-99.222;2023-12-04T11:55:01;18.90;1.00
12413;DHT22;13877;18.896;-99.222;2023-12-04T11:57:39;18.90;1.00
12413;DHT22;13877;18.896;-99.222;2023-12-04T12:05:21;19.00;1.00
12413;DHT22;13877;18.896;-99.222;2023-12-04T12:07:49;18.80;1.00
12413;DHT22;13877;18.896;-99.222;2023-12-04T12:10:17;18.70;1.00
12413;DHT22;13877;18.896;-99.222;2023-12-04T12:12:44;18.60;1.00
12413;DHT22;13877;18.896;-99.222;2023-12-04T12:15:13;18.60;1.00
12413;DHT22;13877;18.896;-99.222;2023-12-04T12:17:41;18.50;1.00
12413;DHT22;13877;18.896;-99.222;2023-12-04T12:20:11;18.50;1.00
12413;DHT22;13877;18.896;-99.222;2023-12-04T12:22:39;18.40;1.00
12413;DHT22;13877;18.896;-99.222;2023-12-04T12:25:10;18.40;1.00
12413;DHT22;13877;18.896;-99.222;2023-12-04T12:27:39;18.30;1.00
12413;DHT22;13877;18.896;-99.222;2023-12-04T12:30:07;18.30;1.00
12413;DHT22;13877;18.896;-99.222;2023-12-04T12:32:34;18.30;1.00
12413;DHT22;13877;18.896;-99.222;2023-12-04T12:35:05;18.20;1.00
12413;DHT22;13877;18.896;-99.222;2023-12-04T12:37:34;18.30;1.00
12413;DHT22;13877;18.896;-99.222;2023-12-04T12:40:03;18.30;1.00
12413;DHT22;13877;18.896;-99.222;2023-12-04T12:42:31;18.30;1.00
12413;DHT22;13877;18.896;-99.222;2023-12-04T12:45:01;18.20;1.00
12413;DHT22;13877;18.896;-99.222;2023-12-04T12:47:31;18.10;1.00
12413;DHT22;13877;18.896;-99.222;2023-12-04T12:49:58;18.10;1.00
12413;DHT22;13877;18.896;-99.222;2023-12-04T12:52:27;18.10;1.00
12413;DHT22;13877;18.896;-99.222;2023-12-04T12:54:54;18.00;1.00
12413;DHT22;13877;18.896;-99.222;2023-12-04T12:57:22;18.10;1.00
12413;DHT22;13877;18.896;-99.222;2023-12-04T12:59:49;18.20;1.00
12413;DHT22;13877;18.896;-99.222;2023-12-04T13:02:17;18.20;1.00
12413;DHT22;13877;18.896;-99.222;2023-12-04T13:04:46;18.20;1.00
12413;DHT22;13877;18.896;-99.222;2023-12-04T13:07:14;18.30;1.00
12413;DHT22;13877;18.896;-99.222;2023-12-04T13:09:41;18.20;1.00
12413;DHT22;13877;18.896;-99.222;2023-12-04T13:12:10;18.20;1.00
12413;DHT22;13877;18.896;-99.222;2023-12-04T13:14:38;18.30;1.00
12413;DHT22;13877;18.896;-99.222;2023-12-04T13:17:06;18.50;1.00
12413;DHT22;13877;18.896;-99.222;2023-12-04T13:19:33;18.50;1.00
12413;DHT22;13877;18.896;-99.222;2023-12-04T13:22:01;18.50;1.00
12413;DHT22;13877;18.896;-99.222;2023-12-04T13:24:30;18.60;1.00
12413;DHT22;13877;18.896;-99.222;2023-12-04T13:26:58;18.60;1.00
12413;DHT22;13877;18.896;-99.222;2023-12-04T13:29:25;18.80;1.00
12413;DHT22;13877;18.896;-99.222;2023-12-04T13:31:52;18.90;1.00
12413;DHT22;13877;18.896;-99.222;2023-12-04T13:34:19;19.10;1.00
12413;DHT22;13877;18.896;-99.222;2023-12-04T13:36:47;19.30;1.00
12413;DHT22;13877;18.896;-99.222;2023-12-04T13:39:14;19.30;1.00
12413;DHT22;13877;18.896;-99.222;2023-12-04T13:41:49;19.30;1.00
12413;DHT22;13877;18.896;-99.222;2023-12-04T13:44:35;19.40;1.00
12413;DHT22;13877;18.896;-99.222;2023-12-04T13:47:02;19.40;1.00
12413;DHT22;13877;18.896;-99.222;2023-12-04T13:49:30;19.50;1.00
12413;DHT22;13877;18.896;-99.222;2023-12-04T13:51:57;19.50;1.00
12413;DHT22;13877;18.896;-99.222;2023-12-04T13:54:25;19.50;1.00
12413;DHT22;13877;18.896;-99.222;2023-12-04T13:57:10;19.60;1.00
12413;DHT22;13877;18.896;-99.222;2023-12-04T13:59:45;19.70;1.00
12413;DHT22;13877;18.896;-99.222;2023-12-04T14:02:12;19.80;1.00
12413;DHT22;13877;18.896;-99.222;2023-12-04T14:04:41;19.90;1.00
12413;DHT22;13877;18.896;-99.222;2023-12-04T14:07:08;20.00;1.00
12413;DHT22;13877;18.896;-99.222;2023-12-04T14:09:36;20.00;1.00
12413;DHT22;13877;18.896;-99.222;2023-12-04T14:12:04;20.10;1.00
12413;DHT22;13877;18.896;-99.222;2023-12-04T14:14:31;20.30;1.00
12413;DHT22;13877;18.896;-99.222;2023-12-04T14:17:00;20.50;1.00
12413;DHT22;13877;18.896;-99.222;2023-12-04T14:19:30;20.70;1.00
12413;DHT22;13877;18.896;-99.222;2023-12-04T14:22:00;20.80;1.00
12413;DHT22;13877;18.896;-99.222;2023-12-04T14:24:27;20.80;1.00
12413;DHT22;13877;18.896;-99.222;2023-12-04T14:26:56;20.80;1.00
12413;DHT22;13877;18.896;-99.222;2023-12-04T14:29:24;20.90;1.00
12413;DHT22;13877;18.896;-99.222;2023-12-04T14:31:51;21.00;1.00
12413;DHT22;13877;18.896;-99.222;2023-12-04T14:34:18;21.20;1.00
12413;DHT22;13877;18.896;-99.222;2023-12-04T14:36:45;21.40;1.00
12413;DHT22;13877;18.896;-99.222;2023-12-04T14:39:12;21.50;1.00
12413;DHT22;13877;18.896;-99.222;2023-12-04T14:41:40;21.80;1.00
12413;DHT22;13877;18.896;-99.222;2023-12-04T14:44:07;21.80;1.00
12413;DHT22;13877;18.896;-99.222;2023-12-04T14:46:34;21.80;1.00
12413;DHT22;13877;18.896;-99.222;2023-12-04T14:49:02;21.80;1.00
12413;DHT22;13877;18.896;-99.222;2023-12-04T14:51:29;21.90;1.00
12413;DHT22;13877;18.896;-99.222;2023-12-04T14:53:56;22.10;1.00
12413;DHT22;13877;18.896;-99.222;2023-12-04T14:56:48;22.30;1.00
12413;DHT22;13877;18.896;-99.222;2023-12-04T14:59:34;22.40;1.00
12413;DHT22;13877;18.896;-99.222;2023-12-04T15:02:16;22.60;1.00
12413;DHT22;13877;18.896;-99.222;2023-12-04T15:05:02;22.60;1.00
12413;DHT22;13877;18.896;-99.222;2023-12-04T15:07:29;22.70;1.00
12413;DHT22;13877;18.896;-99.222;2023-12-04T15:10:15;22.80;1.00
12413;DHT22;13877;18.896;-99.222;2023-12-04T15:12:51;22.80;1.00
12413;DHT22;13877;18.896;-99.222;2023-12-04T15:15:21;22.80;1.00
12413;DHT22;13877;18.896;-99.222;2023-12-04T15:18:07;22.70;1.00
12413;DHT22;13877;18.896;-99.222;2023-12-04T15:20:52;22.70;1.00
12413;DHT22;13877;18.896;-99.222;2023-12-04T15:23:19;22.60;1.00
12413;DHT22;13877;18.896;-99.222;2023-12-04T15:25:47;22.50;1.00
12413;DHT22;13877;18.896;-99.222;2023-12-04T15:28:14;22.50;1.00
12413;DHT22;13877;18.896;-99.222;2023-12-04T15:30:41;22.70;1.00